Flight Track Log - Related Links

Times and Time Zones

All times are in EDT time to prevent confusion due to time zone crossing. See the LBQ792 flight status page for this flight to view local times or setup timezone preferences in your user account.

Time Position Orientation Groundspeed Altitude Reporting Facility
EDT Latitude Longitude Course Direction KTS MPH feet Rate Location/Type
Tue 11:39:10 PM 43.0833 -78.9333 180° South 146 168 3,000  Level Buffalo TRACON
Tue 11:40:10 PM 43.0500 -78.9667 216° Southwest 161 185 4,300 1,311 Climbing Buffalo TRACON
Tue 11:41:09 PM 43.0033 -78.9764 189° South 176 203 5,600 1,361 Climbing Cleveland Center
Tue 11:42:09 PM 42.9494 -78.9864 188° South 181 208 7,000 1,400 Climbing Cleveland Center
Tue 11:44:00 PM 42.8092 -78.9969 194° South  Level FlightAware Approximate
Tue 11:44:00 PM 42.8382 -78.9892 200° South  Level FlightAware Approximate
Tue 11:51:00 PM 42.4347 -79.1395 196° South  Level FlightAware Approximate
Tue 11:52:00 PM 42.3772 -79.1626 196° South  Level FlightAware Approximate
Tue 11:53:00 PM 42.3196 -79.1855 196° South  Level FlightAware Approximate
Tue 11:54:00 PM 42.2620 -79.2079 195° South  Level FlightAware Approximate
Tue 11:55:00 PM 42.2042 -79.2294 195° South  Level FlightAware Approximate
Tue 11:56:00 PM 42.1463 -79.2509 195° South  Level FlightAware Approximate
Tue 11:57:00 PM 42.0885 -79.2723 195° South  Level FlightAware Approximate
Tue 11:58:00 PM 42.0307 -79.2937 195° South  Level FlightAware Approximate
Tue 11:59:00 PM 41.9728 -79.3150 195° South  Level FlightAware Approximate
Wed 12:00:00 AM 41.9150 -79.3363 195° South  Level FlightAware Approximate
Wed 12:01:00 AM 41.8571 -79.3576 195° South  Level FlightAware Approximate
Wed 12:02:00 AM 41.7992 -79.3788 195° South  Level FlightAware Approximate
Wed 12:03:00 AM 41.7414 -79.4000 195° South  Level FlightAware Approximate
Wed 12:04:00 AM 41.6835 -79.4211 195° South  Level FlightAware Approximate
Wed 12:05:00 AM 41.6274 -79.4484 206° Southwest  Level FlightAware Approximate
Wed 12:06:00 AM 41.5715 -79.4762 194° South  Level FlightAware Approximate
Wed 12:07:00 AM 41.5133 -79.4956 194° South  Level FlightAware Approximate
Wed 12:08:00 AM 41.4548 -79.5136 193° South  Level FlightAware Approximate
Wed 12:09:00 AM 41.3917 -79.5316 195° South  Level FlightAware Approximate
Wed 12:10:00 AM 41.3292 -79.5539 195° South  Level FlightAware Approximate
Wed 12:11:00 AM 41.2668 -79.5762 195° South  Level FlightAware Approximate
Wed 12:12:00 AM 41.2043 -79.5985 195° South  Level FlightAware Approximate
Wed 12:13:00 AM 41.1422 -79.6227 197° South  Level FlightAware Approximate
Wed 12:14:00 AM 41.0802 -79.6471 196° South  Level FlightAware Approximate
Wed 12:15:00 AM 41.0182 -79.6714 196° South  Level FlightAware Approximate
Wed 12:16:00 AM 40.9561 -79.6956 196° South  Level FlightAware Approximate
Wed 12:17:00 AM 40.8941 -79.7198 196° South  Level FlightAware Approximate
Wed 12:18:00 AM 40.8320 -79.7440 196° South  Level FlightAware Approximate
Wed 12:19:00 AM 40.7697 -79.7666 195° South  Level FlightAware Approximate
Wed 12:20:00 AM 40.7072 -79.7887 195° South  Level FlightAware Approximate
Wed 12:21:00 AM 40.6447 -79.8108 195° South  Level FlightAware Approximate
Wed 12:22:00 AM 40.5822 -79.8328 195° South  Level FlightAware Approximate
Wed 12:23:00 AM 40.5197 -79.8546 194° South  Level FlightAware Approximate
Wed 12:24:00 AM 40.4579 -79.8794 201° Southwest  Level FlightAware Approximate
Wed 12:25:00 AM 40.3962 -79.9048 197° South  Level FlightAware Approximate
Wed 12:26:00 AM 40.3500 -79.9167 180° South  Level FlightAware Approximate
Wed 12:27:00 AM 40.3544 -79.9302 180° South  Level Estimated
Wed 12:28:00 AM 40.3544 -79.9302 180° South  Level Estimated

Login

Don't have an account? Register now (free) for customized features, flight alerts, and more!